createdAt,value
2018-07-17T00:00:11.172Z,37.40
2018-07-17T00:02:40.682Z,39.20
2018-07-17T00:05:09.610Z,40.20
2018-07-17T00:07:38.269Z,42.10
2018-07-17T00:10:07.449Z,43.10
2018-07-17T00:12:36.193Z,46.10
2018-07-17T00:15:05.622Z,45.20
2018-07-17T00:17:35.694Z,47.30
2018-07-17T00:20:04.905Z,48.30
2018-07-17T00:22:33.347Z,48.20
2018-07-17T00:25:02.140Z,50.30
2018-07-17T00:27:30.640Z,51.50
2018-07-17T00:29:59.041Z,52.50
2018-07-17T00:32:27.757Z,50.80
2018-07-17T00:34:56.340Z,52.10
2018-07-17T00:37:24.875Z,52.50
2018-07-17T00:39:53.916Z,52.30
2018-07-17T00:42:22.827Z,53.40
2018-07-17T00:44:51.226Z,55.70
2018-07-17T00:47:19.793Z,55.10
2018-07-17T00:49:48.477Z,55.80
2018-07-17T00:52:16.932Z,60.20
2018-07-17T00:54:45.504Z,59.10
2018-07-17T00:57:13.885Z,58.70
2018-07-17T00:59:42.500Z,59.80
2018-07-17T01:02:15.222Z,60.50
2018-07-17T01:04:47.957Z,61.70
2018-07-17T01:07:20.542Z,60.90
2018-07-17T01:09:53.121Z,60.40
2018-07-17T01:12:20.730Z,60.80
2018-07-17T01:14:53.803Z,59.70
2018-07-17T01:17:22.873Z,62.60
2018-07-17T01:19:51.365Z,65.70
2018-07-17T01:22:19.933Z,77.40
2018-07-17T01:27:16.447Z,86.90
2018-07-17T01:29:44.976Z,90.60
2018-07-17T01:32:13.798Z,91.10
2018-07-17T01:34:42.366Z,92.10
2018-07-17T01:37:10.783Z,92.70
2018-07-17T01:39:39.979Z,93.00
2018-07-17T01:42:08.376Z,93.80
2018-07-17T01:44:36.862Z,94.40
2018-07-17T01:47:05.590Z,94.60
2018-07-17T01:49:34.907Z,94.40
2018-07-17T01:52:03.514Z,94.40
2018-07-17T01:54:31.884Z,94.40
2018-07-17T01:57:00.430Z,94.50
2018-07-17T01:59:28.973Z,94.40
2018-07-17T02:01:57.476Z,95.10
2018-07-17T02:04:26.787Z,95.40
2018-07-17T02:06:55.722Z,95.40
2018-07-17T02:09:24.347Z,95.90
2018-07-17T02:11:52.946Z,95.80
2018-07-17T02:14:21.749Z,95.80
2018-07-17T02:16:50.219Z,96.10
2018-07-17T02:19:20.176Z,96.10
2018-07-17T02:21:48.798Z,96.60
2018-07-17T02:24:19.735Z,96.90
2018-07-17T02:26:48.233Z,97.10
2018-07-17T02:29:16.957Z,97.00
2018-07-17T02:31:45.829Z,97.30
2018-07-17T02:34:14.433Z,97.50
2018-07-17T02:36:43.443Z,97.80
2018-07-17T02:39:12.686Z,97.90
2018-07-17T02:41:41.179Z,98.00
2018-07-17T02:44:09.535Z,98.60
2018-07-17T02:46:37.936Z,98.50
2018-07-17T02:49:08.516Z,98.70
2018-07-17T02:54:06.180Z,98.80
2018-07-17T02:56:34.601Z,98.60
2018-07-17T02:59:03.203Z,98.60
2018-07-17T03:01:31.859Z,98.70
2018-07-17T03:04:00.633Z,98.80
2018-07-17T03:06:29.151Z,98.80
2018-07-17T03:08:57.505Z,99.30
2018-07-17T03:11:26.355Z,99.40
2018-07-17T03:13:54.830Z,99.20
2018-07-17T03:16:23.265Z,99.20
2018-07-17T03:18:51.760Z,99.50
2018-07-17T03:21:20.243Z,99.60
2018-07-17T03:23:48.843Z,99.70
2018-07-17T03:26:17.293Z,99.60
2018-07-17T03:28:46.361Z,99.80
2018-07-17T03:31:15.246Z,99.90
2018-07-17T03:33:44.583Z,99.90
2018-07-17T03:36:14.125Z,99.40
2018-07-17T03:38:42.468Z,98.80
2018-07-17T03:41:11.059Z,98.60
2018-07-17T03:43:39.461Z,98.40
2018-07-17T03:46:07.988Z,98.50
2018-07-17T03:48:36.453Z,98.60
2018-07-17T03:51:05.400Z,98.80
2018-07-17T03:53:33.769Z,98.50
2018-07-17T03:56:02.387Z,98.20
2018-07-17T03:58:30.974Z,98.10
2018-07-17T04:00:59.514Z,97.80
2018-07-17T04:03:28.871Z,97.60
2018-07-17T04:05:57.358Z,97.50
2018-07-17T04:08:26.403Z,97.50
2018-07-17T04:10:54.896Z,97.20
2018-07-17T04:13:23.346Z,96.90
2018-07-17T04:15:51.712Z,95.90
2018-07-17T04:18:20.132Z,94.40
2018-07-17T04:20:49.451Z,92.40
2018-07-17T04:23:17.854Z,90.30
2018-07-17T04:25:46.282Z,88.00
2018-07-17T04:28:14.765Z,85.90
2018-07-17T04:30:43.376Z,83.40
2018-07-17T04:33:12.045Z,80.70
2018-07-17T04:35:40.482Z,71.80
2018-07-17T04:38:08.904Z,71.10
2018-07-17T04:40:37.420Z,70.20
2018-07-17T04:43:05.951Z,65.70
2018-07-17T04:45:34.415Z,61.00
2018-07-17T04:48:02.964Z,58.30
2018-07-17T04:50:31.604Z,55.20
2018-07-17T04:53:00.319Z,52.70
2018-07-17T04:57:57.949Z,48.70
2018-07-17T05:00:26.428Z,46.80
2018-07-17T05:02:54.882Z,45.50
2018-07-17T05:05:23.524Z,43.50
2018-07-17T05:07:52.022Z,40.50
2018-07-17T05:10:21.503Z,37.50
2018-07-17T05:12:50.552Z,33.40
2018-07-17T05:15:19.113Z,28.10
2018-07-17T05:17:47.544Z,25.40
2018-07-17T05:20:17.091Z,24.80
2018-07-17T05:22:46.055Z,23.30
2018-07-17T05:25:14.571Z,25.00
2018-07-17T05:27:42.997Z,24.00
2018-07-17T05:30:12.874Z,23.30
2018-07-17T05:32:42.117Z,21.00
2018-07-17T05:35:10.963Z,20.10
2018-07-17T05:37:39.439Z,18.80
2018-07-17T05:40:07.929Z,18.30
2018-07-17T05:42:37.323Z,16.60
2018-07-17T05:45:06.034Z,16.20
2018-07-17T05:47:38.613Z,17.20
2018-07-17T05:50:07.129Z,16.50
2018-07-17T05:52:35.597Z,16.30
2018-07-17T05:55:04.537Z,15.40
2018-07-17T05:57:33.132Z,15.10
2018-07-17T06:00:01.809Z,14.60
2018-07-17T06:02:30.292Z,14.70
2018-07-17T06:04:58.905Z,15.50
2018-07-17T06:07:27.390Z,16.90
2018-07-17T06:09:56.067Z,18.30
2018-07-17T06:12:24.915Z,18.20
2018-07-17T06:14:54.160Z,17.90
2018-07-17T06:17:22.615Z,18.10
2018-07-17T06:19:51.294Z,15.80
2018-07-17T06:22:20.416Z,15.50
2018-07-17T06:24:49.544Z,15.20
2018-07-17T06:27:18.781Z,13.80
2018-07-17T06:29:47.154Z,12.20
2018-07-17T06:32:17.330Z,12.10
2018-07-17T06:34:48.364Z,13.10
2018-07-17T06:37:18.084Z,14.60
2018-07-17T06:39:46.667Z,13.00
2018-07-17T06:42:15.247Z,12.00
2018-07-17T06:44:44.243Z,10.40
2018-07-17T06:47:12.687Z,9.50
2018-07-17T06:49:41.300Z,8.70
2018-07-17T06:52:09.706Z,8.50
2018-07-17T06:54:38.619Z,8.50
2018-07-17T06:57:07.895Z,8.00
2018-07-17T06:59:36.656Z,7.70
2018-07-17T07:02:05.175Z,10.90
2018-07-17T07:04:33.686Z,10.50
2018-07-17T07:07:02.049Z,8.60
2018-07-17T07:09:30.536Z,6.40
2018-07-17T07:11:59.829Z,7.00
2018-07-17T07:14:28.339Z,6.60
2018-07-17T07:17:02.036Z,6.10
2018-07-17T07:19:42.228Z,7.30
2018-07-17T07:22:11.029Z,7.60
2018-07-17T07:24:39.441Z,7.80
2018-07-17T07:27:07.829Z,6.50
2018-07-17T07:29:36.642Z,7.20
2018-07-17T07:32:05.497Z,7.10
2018-07-17T07:34:34.159Z,6.70
2018-07-17T07:37:02.667Z,6.10
2018-07-17T07:39:31.023Z,5.30
2018-07-17T07:41:59.625Z,5.40
2018-07-17T07:44:28.136Z,5.00
2018-07-17T07:46:56.480Z,4.50
2018-07-17T07:49:25.098Z,4.50
2018-07-17T07:51:53.551Z,4.70
2018-07-17T07:54:22.963Z,4.70
2018-07-17T07:56:52.073Z,4.00
2018-07-17T07:59:21.581Z,4.70
2018-07-17T08:01:50.227Z,4.80
2018-07-17T08:04:18.594Z,3.60
2018-07-17T08:06:47.094Z,3.00
2018-07-17T08:09:15.561Z,2.20
2018-07-17T08:11:44.136Z,3.80
2018-07-17T08:14:12.540Z,1.90
2018-07-17T08:16:41.090Z,1.10
2018-07-17T08:19:09.539Z,1.20
2018-07-17T08:21:38.086Z,1.00
2018-07-17T08:24:06.550Z,1.10
2018-07-17T08:26:35.028Z,1.00
2018-07-17T08:29:03.718Z,1.00
2018-07-17T08:31:32.446Z,1.00
2018-07-17T08:34:01.665Z,1.00
2018-07-17T08:36:32.258Z,1.00
2018-07-17T08:39:01.671Z,1.00
2018-07-17T08:41:31.335Z,1.00
2018-07-17T08:43:59.923Z,1.00
2018-07-17T08:46:29.722Z,1.00
2018-07-17T08:48:58.216Z,1.00
2018-07-17T08:51:27.081Z,1.00
2018-07-17T08:53:57.068Z,1.00
2018-07-17T08:56:27.255Z,1.00
2018-07-17T08:59:00.717Z,1.00
2018-07-17T09:01:29.844Z,1.00
2018-07-17T09:03:58.995Z,1.00
2018-07-17T09:06:27.652Z,1.00
2018-07-17T09:08:57.050Z,1.00
2018-07-17T09:11:25.790Z,1.00
2018-07-17T09:13:55.416Z,1.00
2018-07-17T09:16:23.952Z,1.00
2018-07-17T09:18:57.839Z,1.00
2018-07-17T09:21:26.659Z,1.00
2018-07-17T09:23:55.669Z,1.00
2018-07-17T09:26:25.450Z,1.00
2018-07-17T09:28:54.223Z,1.00
2018-07-17T09:31:23.655Z,1.00
2018-07-17T09:33:54.002Z,1.00
2018-07-17T09:36:23.198Z,1.00
2018-07-17T09:38:52.648Z,1.00
2018-07-17T09:41:21.364Z,1.00
2018-07-17T09:43:50.123Z,1.00
2018-07-17T09:46:19.277Z,1.00
2018-07-17T09:48:48.394Z,1.00
2018-07-17T09:51:16.915Z,1.00
2018-07-17T09:53:45.850Z,1.00
2018-07-17T09:56:16.128Z,1.00
2018-07-17T09:58:44.821Z,1.00
2018-07-17T10:01:17.381Z,1.00
2018-07-17T10:03:46.326Z,1.00
2018-07-17T10:06:14.886Z,1.00
2018-07-17T10:08:43.760Z,1.00
2018-07-17T10:11:12.348Z,1.00
2018-07-17T10:13:41.145Z,1.00
2018-07-17T10:16:10.368Z,1.00
2018-07-17T10:18:39.330Z,1.00
2018-07-17T10:21:07.868Z,1.00
2018-07-17T10:23:37.157Z,1.00
2018-07-17T10:26:05.677Z,1.00
2018-07-17T10:28:34.157Z,1.00
2018-07-17T10:31:06.441Z,1.00
2018-07-17T10:33:36.340Z,1.00
2018-07-17T10:36:05.494Z,1.00
2018-07-17T10:38:34.347Z,1.00
2018-07-17T10:41:04.259Z,1.00
2018-07-17T10:43:32.981Z,1.00
2018-07-17T10:46:01.628Z,1.00
2018-07-17T10:48:30.492Z,1.00
2018-07-17T10:51:00.081Z,1.00
2018-07-17T10:53:29.158Z,1.00
2018-07-17T10:55:57.698Z,1.00
2018-07-17T10:58:26.491Z,1.00
2018-07-17T11:00:55.287Z,1.00
2018-07-17T11:03:23.856Z,1.00
2018-07-17T11:05:52.300Z,1.00
2018-07-17T11:08:20.832Z,1.00
2018-07-17T11:10:49.389Z,1.00
2018-07-17T11:13:18.085Z,1.00
2018-07-17T11:15:47.364Z,1.00
2018-07-17T11:18:15.869Z,1.00
2018-07-17T11:20:45.520Z,1.00
2018-07-17T11:23:13.867Z,1.00
2018-07-17T11:25:42.948Z,1.00
2018-07-17T11:28:11.687Z,1.00
2018-07-17T11:30:40.369Z,1.00
2018-07-17T11:33:09.098Z,1.00
2018-07-17T11:35:38.454Z,1.00
2018-07-17T11:38:06.814Z,1.00
2018-07-17T11:40:36.152Z,1.00
2018-07-17T11:43:05.670Z,1.00
2018-07-17T11:45:34.269Z,1.00
2018-07-17T11:48:03.007Z,1.00
2018-07-17T11:50:33.861Z,1.00
2018-07-17T11:53:02.427Z,1.00
2018-07-17T11:55:31.912Z,1.00
2018-07-17T11:58:01.806Z,1.00
2018-07-17T12:00:30.414Z,1.00
2018-07-17T12:02:59.516Z,1.00
2018-07-17T12:05:28.065Z,1.00
2018-07-17T12:07:56.451Z,1.00
2018-07-17T12:10:25.617Z,1.00
2018-07-17T12:12:54.356Z,1.00
2018-07-17T12:15:22.866Z,1.00
2018-07-17T12:17:51.313Z,1.00
2018-07-17T12:20:20.044Z,1.00
2018-07-17T12:22:48.472Z,1.00
2018-07-17T12:25:17.061Z,1.00
2018-07-17T12:27:45.795Z,1.00
2018-07-17T12:30:15.401Z,1.00
2018-07-17T12:32:44.375Z,1.00
2018-07-17T12:35:12.827Z,1.00
2018-07-17T12:37:41.378Z,1.00
2018-07-17T12:40:09.875Z,1.00
2018-07-17T12:42:38.332Z,1.00
2018-07-17T12:45:06.812Z,1.00
2018-07-17T12:47:35.207Z,1.00
2018-07-17T12:50:04.824Z,1.00
2018-07-17T12:52:33.296Z,1.00
2018-07-17T12:55:01.755Z,1.00
2018-07-17T12:57:30.306Z,1.00
2018-07-17T12:59:58.855Z,1.00
2018-07-17T13:02:27.383Z,1.00
2018-07-17T13:04:56.786Z,1.00
2018-07-17T13:07:26.771Z,1.00
2018-07-17T13:09:55.342Z,1.00
2018-07-17T13:12:24.172Z,1.00
2018-07-17T13:14:52.853Z,1.00
2018-07-17T13:17:23.404Z,1.00
2018-07-17T13:19:51.808Z,1.00
2018-07-17T13:22:23.237Z,1.00
2018-07-17T13:24:52.152Z,1.00
2018-07-17T13:27:21.009Z,1.00
2018-07-17T13:29:49.822Z,1.00
2018-07-17T13:32:20.121Z,1.00
2018-07-17T13:34:50.292Z,1.00
2018-07-17T13:37:18.733Z,1.00
2018-07-17T13:39:48.231Z,1.00
2018-07-17T13:42:17.114Z,1.00
2018-07-17T13:44:46.257Z,1.00
2018-07-17T13:47:15.327Z,1.00
2018-07-17T13:49:44.402Z,1.00
2018-07-17T13:52:14.161Z,1.00
2018-07-17T13:54:43.262Z,1.00
2018-07-17T13:57:11.706Z,1.00
2018-07-17T13:59:40.995Z,1.00
2018-07-17T14:02:10.443Z,1.00
2018-07-17T14:04:39.302Z,1.00
2018-07-17T14:07:07.899Z,1.00
2018-07-17T14:09:36.957Z,1.00
2018-07-17T14:12:05.959Z,1.00
2018-07-17T14:14:34.597Z,1.00
2018-07-17T14:17:03.337Z,1.00
2018-07-17T14:19:31.961Z,1.00
2018-07-17T14:22:00.608Z,1.00
2018-07-17T14:24:29.364Z,1.00
2018-07-17T14:26:58.124Z,1.00
2018-07-17T14:29:29.207Z,1.00
2018-07-17T14:31:58.153Z,1.00
2018-07-17T14:34:27.126Z,1.00
2018-07-17T14:36:56.038Z,1.00
2018-07-17T14:39:24.878Z,1.00
2018-07-17T14:41:54.328Z,1.00
2018-07-17T14:44:23.610Z,1.00
2018-07-17T14:46:52.757Z,1.00
2018-07-17T14:49:21.425Z,1.00
2018-07-17T14:51:50.336Z,1.00
2018-07-17T14:54:19.991Z,1.00
2018-07-17T14:56:49.751Z,1.00
2018-07-17T14:59:18.748Z,1.00
2018-07-17T15:01:48.921Z,1.00
2018-07-17T15:04:18.515Z,1.00
2018-07-17T15:06:47.358Z,1.00
2018-07-17T15:09:16.114Z,1.00
2018-07-17T15:11:44.823Z,1.00
2018-07-17T15:14:14.035Z,1.00
2018-07-17T15:16:44.364Z,1.00
2018-07-17T15:19:13.860Z,1.00
2018-07-17T15:21:43.233Z,1.00
2018-07-17T15:24:12.338Z,1.00
2018-07-17T15:26:41.065Z,1.00
2018-07-17T15:29:11.234Z,1.00
2018-07-17T15:31:42.836Z,1.00
2018-07-17T15:34:14.767Z,1.00
2018-07-17T15:36:45.700Z,1.00
2018-07-17T15:39:18.125Z,1.00
2018-07-17T15:41:47.009Z,1.00
2018-07-17T15:44:15.745Z,1.00
2018-07-17T15:46:45.641Z,1.00
2018-07-17T15:49:14.281Z,1.00
2018-07-17T15:51:45.021Z,1.00
2018-07-17T15:54:15.721Z,1.00
2018-07-17T15:56:47.107Z,1.00
2018-07-17T15:59:16.131Z,1.00
2018-07-17T16:01:45.884Z,1.00
2018-07-17T16:04:16.070Z,1.00
2018-07-17T16:06:47.665Z,1.00
2018-07-17T16:09:16.114Z,1.00
2018-07-17T16:11:44.813Z,1.00
2018-07-17T16:14:22.728Z,1.00
2018-07-17T16:16:51.863Z,1.00
2018-07-17T16:19:21.205Z,1.00
2018-07-17T16:21:51.166Z,1.00
2018-07-17T16:24:19.826Z,1.00
2018-07-17T16:26:48.945Z,1.00
2018-07-17T16:29:19.191Z,1.00
2018-07-17T16:31:49.316Z,1.00
2018-07-17T16:34:19.990Z,1.00
2018-07-17T16:36:48.818Z,1.00
2018-07-17T16:39:21.015Z,1.00
2018-07-17T16:41:50.227Z,1.00
2018-07-17T16:44:18.643Z,1.10
2018-07-17T16:46:48.616Z,1.30
2018-07-17T16:49:20.878Z,1.10
2018-07-17T16:51:52.280Z,1.40
2018-07-17T16:54:24.663Z,1.70
2018-07-17T16:56:53.804Z,2.10
2018-07-17T16:59:23.988Z,2.00
2018-07-17T17:01:53.143Z,2.10
2018-07-17T17:04:28.533Z,2.30
2018-07-17T17:06:58.154Z,2.20
2018-07-17T17:09:28.406Z,2.60
2018-07-17T17:11:59.485Z,2.60
2018-07-17T17:14:29.053Z,3.00
2018-07-17T17:16:58.904Z,3.00
2018-07-17T17:19:30.144Z,2.90
2018-07-17T17:21:59.307Z,3.50
2018-07-17T17:24:31.219Z,3.90
2018-07-17T17:27:01.399Z,4.30
2018-07-17T17:29:33.879Z,4.70
2018-07-17T17:32:06.345Z,5.00
2018-07-17T17:34:35.649Z,5.80
2018-07-17T17:37:07.194Z,5.60
2018-07-17T17:39:37.313Z,5.60
2018-07-17T17:42:07.061Z,6.00
2018-07-17T17:44:36.986Z,6.50
2018-07-17T17:47:06.588Z,6.40
2018-07-17T17:49:35.475Z,6.50
2018-07-17T17:52:06.110Z,6.80
2018-07-17T17:54:35.154Z,6.70
2018-07-17T17:57:05.217Z,7.10
2018-07-17T17:59:34.718Z,7.40
2018-07-17T18:02:04.228Z,7.60
2018-07-17T18:04:35.340Z,7.80
2018-07-17T18:09:32.817Z,8.10
2018-07-17T18:12:04.268Z,8.20
2018-07-17T18:14:36.379Z,8.30
2018-07-17T18:17:07.078Z,8.50
2018-07-17T18:19:37.705Z,8.60
2018-07-17T18:22:09.010Z,9.00
2018-07-17T18:24:38.042Z,9.20
2018-07-17T18:27:08.502Z,9.50
2018-07-17T18:29:40.045Z,9.70
2018-07-17T18:32:12.727Z,10.00
2018-07-17T18:34:41.798Z,10.20
2018-07-17T18:37:11.523Z,10.50
2018-07-17T18:42:10.655Z,11.10
2018-07-17T18:44:39.458Z,11.50
2018-07-17T18:47:08.503Z,11.80
2018-07-17T18:49:39.443Z,12.10
2018-07-17T18:52:09.923Z,12.20
2018-07-17T18:54:39.114Z,12.40
2018-07-17T18:57:08.350Z,12.50
2018-07-17T18:59:38.009Z,12.80
2018-07-17T19:02:09.629Z,12.80
2018-07-17T19:04:39.352Z,12.80
2018-07-17T19:07:09.440Z,12.90
2018-07-17T19:09:39.402Z,13.00
2018-07-17T19:12:21.255Z,13.00
2018-07-17T19:14:51.698Z,13.50
2018-07-17T19:17:22.149Z,13.00
2018-07-17T19:19:51.748Z,13.00
2018-07-17T19:22:23.853Z,13.10
2018-07-17T19:24:52.926Z,13.20
2018-07-17T19:27:26.291Z,13.30
2018-07-17T19:29:56.393Z,13.60
2018-07-17T19:32:26.027Z,13.70
2018-07-17T19:34:56.393Z,13.90
2018-07-17T19:37:26.142Z,14.10
2018-07-17T19:39:56.037Z,14.20
2018-07-17T19:42:29.922Z,14.40
2018-07-17T19:44:59.123Z,14.60
2018-07-17T19:47:28.860Z,14.80
2018-07-17T19:49:57.832Z,15.00
2018-07-17T19:52:28.980Z,15.50
2018-07-17T19:55:00.351Z,16.20
2018-07-17T19:57:29.104Z,16.30
2018-07-17T20:00:01.576Z,16.80
2018-07-17T20:02:32.417Z,17.00
2018-07-17T20:05:03.706Z,16.80
2018-07-17T20:07:35.242Z,16.90
2018-07-17T20:10:06.254Z,17.10
2018-07-17T20:12:36.270Z,17.50
2018-07-17T20:15:06.466Z,18.00
2018-07-17T20:17:36.711Z,18.50
2018-07-17T20:20:07.948Z,18.90
2018-07-17T20:22:37.844Z,18.80
2018-07-17T20:25:08.477Z,18.90
2018-07-17T20:27:37.707Z,19.30
2018-07-17T20:30:08.846Z,19.20
2018-07-17T20:32:38.722Z,19.50
2018-07-17T20:35:09.332Z,19.60
2018-07-17T20:37:40.176Z,19.80
2018-07-17T20:40:09.578Z,20.10
2018-07-17T20:42:39.885Z,20.00
2018-07-17T20:45:10.930Z,20.10
2018-07-17T20:47:41.894Z,20.30
2018-07-17T20:50:10.459Z,20.40
2018-07-17T20:52:41.767Z,20.50
2018-07-17T20:55:10.043Z,20.40
2018-07-17T20:57:39.226Z,20.60
2018-07-17T21:00:09.176Z,20.40
2018-07-17T21:02:38.573Z,20.70
2018-07-17T21:05:08.269Z,20.00
2018-07-17T21:07:38.458Z,20.20
2018-07-17T21:12:39.328Z,19.90
2018-07-17T21:15:09.136Z,19.90
2018-07-17T21:17:39.067Z,19.90
2018-07-17T21:20:10.665Z,19.70
2018-07-17T21:22:41.118Z,19.90
2018-07-17T21:25:10.785Z,20.00
2018-07-17T21:27:39.810Z,20.10
2018-07-17T21:30:08.912Z,20.40
2018-07-17T21:32:39.371Z,20.40
2018-07-17T21:35:08.523Z,20.40
2018-07-17T21:37:39.896Z,20.50
2018-07-17T21:40:09.494Z,21.00
2018-07-17T21:42:39.428Z,20.60
2018-07-17T21:45:07.770Z,21.10
2018-07-17T21:47:37.143Z,21.50
2018-07-17T21:50:06.422Z,21.70
2018-07-17T21:52:35.945Z,21.30
2018-07-17T21:55:04.764Z,21.30
2018-07-17T21:57:33.760Z,21.20
2018-07-17T22:00:03.443Z,21.30
2018-07-17T22:02:32.743Z,21.20
2018-07-17T22:05:01.632Z,21.10
2018-07-17T22:07:30.618Z,21.30
2018-07-17T22:10:00.440Z,21.70
2018-07-17T22:12:29.351Z,21.50
2018-07-17T22:15:02.599Z,21.90
2018-07-17T22:17:32.926Z,21.80
2018-07-17T22:20:02.214Z,21.90
2018-07-17T22:22:32.361Z,22.00
2018-07-17T22:25:02.405Z,22.00
2018-07-17T22:27:31.474Z,22.50
2018-07-17T22:30:01.069Z,22.70
2018-07-17T22:32:30.477Z,22.80
2018-07-17T22:35:00.980Z,23.10
2018-07-17T22:37:30.149Z,23.60
2018-07-17T22:39:59.223Z,24.10
2018-07-17T22:42:28.759Z,24.70
2018-07-17T22:44:58.123Z,24.70
2018-07-17T22:47:28.412Z,24.60
2018-07-17T22:52:28.246Z,27.20
2018-07-17T22:54:57.701Z,27.00
2018-07-17T22:57:27.659Z,27.60
2018-07-17T22:59:59.553Z,28.90
2018-07-17T23:02:30.552Z,31.50
2018-07-17T23:04:59.829Z,33.60
2018-07-17T23:07:30.834Z,35.40
2018-07-17T23:09:59.521Z,36.30
2018-07-17T23:12:30.259Z,37.00
2018-07-17T23:14:59.859Z,38.20
2018-07-17T23:17:30.173Z,39.20
2018-07-17T23:20:00.859Z,40.30
2018-07-17T23:22:36.242Z,41.40
2018-07-17T23:25:06.779Z,42.30
2018-07-17T23:27:37.175Z,43.60
2018-07-17T23:30:10.554Z,43.80
2018-07-17T23:32:41.794Z,46.10
2018-07-17T23:35:11.329Z,47.50
2018-07-17T23:37:43.694Z,49.00
2018-07-17T23:40:14.143Z,49.90
2018-07-17T23:42:45.033Z,50.90
2018-07-17T23:45:15.177Z,51.70
2018-07-17T23:47:44.966Z,51.90
2018-07-17T23:50:14.507Z,51.40
2018-07-17T23:52:44.083Z,51.30
2018-07-17T23:55:17.064Z,51.30
2018-07-17T23:57:51.100Z,52.40
